createdAt,value
2017-04-08T00:02:41.053Z,5
2017-04-08T00:12:39.708Z,9
2017-04-08T00:22:39.750Z,11
2017-04-08T00:32:39.723Z,8
2017-04-08T00:42:39.745Z,11
2017-04-08T00:52:39.773Z,12
2017-04-08T01:02:39.722Z,8
2017-04-08T01:12:39.840Z,12
2017-04-08T01:22:41.756Z,10
2017-04-08T01:32:41.724Z,11
2017-04-08T01:42:44.181Z,12
2017-04-08T01:52:44.505Z,9
2017-04-08T02:02:45.067Z,12
2017-04-08T02:12:40.730Z,11
2017-04-08T02:22:41.758Z,11
2017-04-08T02:32:40.770Z,13
2017-04-08T02:42:39.686Z,9
2017-04-08T02:52:42.910Z,10
2017-04-08T03:02:40.734Z,10
2017-04-08T03:12:40.032Z,11
2017-04-08T03:22:39.706Z,9
2017-04-08T03:32:41.745Z,11
2017-04-08T03:42:39.755Z,12
2017-04-08T03:52:40.753Z,11
2017-04-08T04:02:39.678Z,10
2017-04-08T04:12:41.706Z,11
2017-04-08T04:22:41.767Z,10
2017-04-08T04:32:40.653Z,11
2017-04-08T04:42:40.761Z,11
2017-04-08T04:52:43.578Z,11
2017-04-08T05:02:39.748Z,12
2017-04-08T05:12:39.692Z,12
2017-04-08T05:22:39.659Z,12
2017-04-08T05:32:40.647Z,14
2017-04-08T05:42:41.756Z,11
2017-04-08T05:52:40.665Z,13
2017-04-08T06:02:44.594Z,13
2017-04-08T06:12:46.066Z,12
2017-04-08T06:22:43.836Z,14
2017-04-08T06:32:45.497Z,12
2017-04-08T06:42:45.238Z,16
2017-04-08T06:52:40.675Z,12
2017-04-08T07:02:39.679Z,12
2017-04-08T07:12:41.724Z,12
2017-04-08T07:22:42.777Z,12
2017-04-08T07:32:41.788Z,13
2017-04-08T07:42:52.473Z,12
2017-04-08T07:52:57.047Z,11
2017-04-08T08:02:51.988Z,11
2017-04-08T08:12:39.702Z,10
2017-04-08T08:22:40.688Z,15
2017-04-08T08:32:41.746Z,11
2017-04-08T08:42:40.799Z,12
2017-04-08T08:52:39.669Z,14
2017-04-08T09:02:39.723Z,14
2017-04-08T09:12:39.684Z,15
2017-04-08T09:22:39.998Z,17
2017-04-08T09:32:50.006Z,16
2017-04-08T09:42:53.547Z,22
2017-04-08T09:52:40.286Z,20
2017-04-08T10:02:40.614Z,20
2017-04-08T10:12:39.907Z,19
2017-04-08T10:22:40.537Z,19
2017-04-08T10:32:41.347Z,25
2017-04-08T10:42:39.729Z,26
2017-04-08T10:52:39.691Z,27
2017-04-08T11:02:39.801Z,26
2017-04-08T11:12:39.727Z,29
2017-04-08T11:22:39.686Z,33
2017-04-08T11:32:39.781Z,33
2017-04-08T11:42:39.707Z,35
2017-04-08T11:52:39.784Z,41
2017-04-08T12:02:39.740Z,35
2017-04-08T12:12:39.703Z,41
2017-04-08T12:22:41.238Z,39
2017-04-08T12:32:45.348Z,35
2017-04-08T12:42:39.720Z,38
2017-04-08T12:52:39.669Z,37
2017-04-08T13:02:39.782Z,37
2017-04-08T13:12:39.722Z,38
2017-04-08T13:22:39.782Z,39
2017-04-08T13:32:39.734Z,46
2017-04-08T13:42:39.733Z,42
2017-04-08T13:52:39.694Z,41
2017-04-08T14:02:39.706Z,42
2017-04-08T14:12:39.752Z,37
2017-04-08T14:22:39.724Z,37
2017-04-08T14:32:39.687Z,37
2017-04-08T14:42:39.759Z,35
2017-04-08T14:52:39.723Z,36
2017-04-08T15:02:39.756Z,38
2017-04-08T15:12:39.984Z,36
2017-04-08T15:22:40.046Z,41
2017-04-08T15:32:39.837Z,40
2017-04-08T15:42:39.737Z,39
2017-04-08T15:52:39.807Z,45
2017-04-08T16:02:39.755Z,39
2017-04-08T16:12:39.753Z,34
2017-04-08T16:22:39.786Z,36
2017-04-08T16:32:39.879Z,35
2017-04-08T16:42:39.699Z,35
2017-04-08T16:52:39.685Z,30
2017-04-08T17:02:39.711Z,36
2017-04-08T17:12:39.673Z,32
2017-04-08T17:22:39.665Z,37
2017-04-08T17:32:39.718Z,34
2017-04-08T17:42:39.777Z,33
2017-04-08T17:52:39.727Z,37
2017-04-08T18:02:39.789Z,36
2017-04-08T18:12:39.771Z,37
2017-04-08T18:22:39.789Z,38
2017-04-08T18:32:39.853Z,32
2017-04-08T18:42:39.805Z,28
2017-04-08T18:52:39.747Z,27
2017-04-08T19:02:39.885Z,26
2017-04-08T19:12:39.809Z,23
